ENNA

Banak Airport

Lakselv, Norway
METAR ENNA 192150Z 27016G35KT 230V330 9999 -RA BKN035 07/03 Q1014 RMK WIND 1800FT 29057G75KT
Observed Flight Rules
Nov-19 @ 21:50 UTC (28 minutes ago) Visual Flight Rules
Wind Visibility Clouds Conditions
270° at 16 knots
 Gusting to 35 knots
10,000+ meters
  • Broken at 3,500' AGL
  • Light Rain
Temperatures Readings
Current 7°C / 45°F
Dewpoint 3°C / 37°F
Humidity 76%
Altimeter 29.94" Hg
Pressure 1014 hPa
Elevation 8
METAR ENNA 192150Z 27016G35KT 230V330 9999 -RA BKN035 07/03 Q1014 RMK WIND 1800FT 29057G75KT
Observed Flight Rules
Nov-19 @ 21:50 UTC
(28 minutes ago)
VFR
Wind Visibility
270° at 16 knots
 Gusting to 35 knots
10,000+ meters
Clouds
  • Broken at 3,500' AGL
Conditions
  • Light Rain
Temperature Dewpoint
7°C / 45°F 3°C / 37°F
Humidity Altimeter Pressure
76% 29.94" Hg 1014 hPa